sensor_id;sensor_type;location;lat;lon;timestamp;P1;durP1;ratioP1;P2;durP2;ratioP2
74707;SDS011;63360;50.104;8.074;2024-03-08T00:00:16;20.15;;;8.77;;
74707;SDS011;63360;50.104;8.074;2024-03-08T00:02:45;20.60;;;8.25;;
74707;SDS011;63360;50.104;8.074;2024-03-08T00:05:12;20.77;;;8.93;;
74707;SDS011;63360;50.104;8.074;2024-03-08T00:07:40;20.27;;;8.38;;
74707;SDS011;63360;50.104;8.074;2024-03-08T00:10:08;18.85;;;8.40;;
74707;SDS011;63360;50.104;8.074;2024-03-08T00:12:41;20.63;;;9.00;;
74707;SDS011;63360;50.104;8.074;2024-03-08T00:15:09;21.10;;;8.50;;
74707;SDS011;63360;50.104;8.074;2024-03-08T00:17:42;19.97;;;9.00;;
74707;SDS011;63360;50.104;8.074;2024-03-08T00:20:09;24.70;;;9.30;;
74707;SDS011;63360;50.104;8.074;2024-03-08T00:22:37;21.02;;;7.70;;
74707;SDS011;63360;50.104;8.074;2024-03-08T00:25:04;22.35;;;8.40;;
74707;SDS011;63360;50.104;8.074;2024-03-08T00:27:31;20.23;;;8.88;;
74707;SDS011;63360;50.104;8.074;2024-03-08T00:29:58;22.03;;;8.30;;
74707;SDS011;63360;50.104;8.074;2024-03-08T00:32:24;19.55;;;7.93;;
74707;SDS011;63360;50.104;8.074;2024-03-08T00:34:51;20.02;;;8.60;;
74707;SDS011;63360;50.104;8.074;2024-03-08T00:37:20;19.40;;;8.43;;
74707;SDS011;63360;50.104;8.074;2024-03-08T00:39:51;18.77;;;7.63;;
74707;SDS011;63360;50.104;8.074;2024-03-08T00:42:18;24.13;;;9.20;;
74707;SDS011;63360;50.104;8.074;2024-03-08T00:44:45;19.73;;;8.07;;
74707;SDS011;63360;50.104;8.074;2024-03-08T00:47:12;18.50;;;7.97;;
74707;SDS011;63360;50.104;8.074;2024-03-08T00:49:40;21.33;;;8.60;;
74707;SDS011;63360;50.104;8.074;2024-03-08T00:52:08;19.45;;;8.35;;
74707;SDS011;63360;50.104;8.074;2024-03-08T00:54:35;20.53;;;8.93;;
74707;SDS011;63360;50.104;8.074;2024-03-08T00:57:04;21.10;;;8.70;;
74707;SDS011;63360;50.104;8.074;2024-03-08T00:59:32;20.00;;;7.82;;
74707;SDS011;63360;50.104;8.074;2024-03-08T01:02:01;20.88;;;8.55;;
74707;SDS011;63360;50.104;8.074;2024-03-08T01:04:28;20.17;;;8.63;;
74707;SDS011;63360;50.104;8.074;2024-03-08T01:06:55;21.30;;;7.90;;
74707;SDS011;63360;50.104;8.074;2024-03-08T01:09:25;19.60;;;8.13;;
74707;SDS011;63360;50.104;8.074;2024-03-08T01:11:53;20.30;;;8.50;;
74707;SDS011;63360;50.104;8.074;2024-03-08T01:14:22;22.20;;;8.40;;
74707;SDS011;63360;50.104;8.074;2024-03-08T01:16:50;19.73;;;8.65;;
74707;SDS011;63360;50.104;8.074;2024-03-08T01:19:16;18.63;;;7.93;;
74707;SDS011;63360;50.104;8.074;2024-03-08T01:21:43;19.60;;;7.70;;
74707;SDS011;63360;50.104;8.074;2024-03-08T01:24:10;24.00;;;8.65;;
74707;SDS011;63360;50.104;8.074;2024-03-08T01:26:36;20.15;;;8.63;;
74707;SDS011;63360;50.104;8.074;2024-03-08T01:29:03;25.33;;;8.40;;
74707;SDS011;63360;50.104;8.074;2024-03-08T01:31:29;22.17;;;8.57;;
74707;SDS011;63360;50.104;8.074;2024-03-08T01:33:56;19.27;;;8.30;;
74707;SDS011;63360;50.104;8.074;2024-03-08T01:36:24;20.73;;;8.23;;
74707;SDS011;63360;50.104;8.074;2024-03-08T01:38:51;21.02;;;8.80;;
74707;SDS011;63360;50.104;8.074;2024-03-08T01:41:18;19.88;;;8.23;;
74707;SDS011;63360;50.104;8.074;2024-03-08T01:43:44;21.23;;;8.43;;
74707;SDS011;63360;50.104;8.074;2024-03-08T01:46:12;19.70;;;7.95;;
74707;SDS011;63360;50.104;8.074;2024-03-08T01:48:42;23.27;;;8.27;;
74707;SDS011;63360;50.104;8.074;2024-03-08T01:51:09;21.52;;;8.82;;
74707;SDS011;63360;50.104;8.074;2024-03-08T01:53:38;22.65;;;8.38;;
74707;SDS011;63360;50.104;8.074;2024-03-08T01:56:04;21.40;;;8.07;;
74707;SDS011;63360;50.104;8.074;2024-03-08T01:58:32;20.25;;;8.52;;
74707;SDS011;63360;50.104;8.074;2024-03-08T02:00:59;21.92;;;8.80;;
74707;SDS011;63360;50.104;8.074;2024-03-08T02:03:25;20.67;;;8.18;;
74707;SDS011;63360;50.104;8.074;2024-03-08T02:05:52;22.35;;;8.35;;
74707;SDS011;63360;50.104;8.074;2024-03-08T02:08:19;22.67;;;9.00;;
74707;SDS011;63360;50.104;8.074;2024-03-08T02:10:48;19.08;;;8.30;;
74707;SDS011;63360;50.104;8.074;2024-03-08T02:13:15;22.23;;;8.90;;
74707;SDS011;63360;50.104;8.074;2024-03-08T02:15:55;21.95;;;8.38;;
74707;SDS011;63360;50.104;8.074;2024-03-08T02:18:25;22.98;;;8.43;;
74707;SDS011;63360;50.104;8.074;2024-03-08T02:20:55;22.90;;;8.50;;
74707;SDS011;63360;50.104;8.074;2024-03-08T02:23:23;20.65;;;7.93;;
74707;SDS011;63360;50.104;8.074;2024-03-08T02:25:51;21.27;;;8.57;;
74707;SDS011;63360;50.104;8.074;2024-03-08T02:28:18;23.45;;;9.00;;
74707;SDS011;63360;50.104;8.074;2024-03-08T02:30:47;20.48;;;8.57;;
74707;SDS011;63360;50.104;8.074;2024-03-08T02:33:14;20.93;;;8.27;;
74707;SDS011;63360;50.104;8.074;2024-03-08T02:35:46;23.27;;;8.63;;
74707;SDS011;63360;50.104;8.074;2024-03-08T02:38:17;21.83;;;9.00;;
74707;SDS011;63360;50.104;8.074;2024-03-08T02:40:45;21.00;;;8.27;;
74707;SDS011;63360;50.104;8.074;2024-03-08T02:43:12;20.90;;;8.68;;
74707;SDS011;63360;50.104;8.074;2024-03-08T02:45:40;21.13;;;8.13;;
74707;SDS011;63360;50.104;8.074;2024-03-08T02:48:11;18.67;;;7.95;;
74707;SDS011;63360;50.104;8.074;2024-03-08T02:50:39;24.60;;;8.80;;
74707;SDS011;63360;50.104;8.074;2024-03-08T02:53:12;23.23;;;8.80;;
74707;SDS011;63360;50.104;8.074;2024-03-08T02:55:39;21.48;;;8.55;;
74707;SDS011;63360;50.104;8.074;2024-03-08T02:58:07;22.80;;;8.43;;
74707;SDS011;63360;50.104;8.074;2024-03-08T03:00:37;20.48;;;8.30;;
74707;SDS011;63360;50.104;8.074;2024-03-08T03:03:08;22.20;;;8.32;;
74707;SDS011;63360;50.104;8.074;2024-03-08T03:05:35;22.67;;;8.65;;
74707;SDS011;63360;50.104;8.074;2024-03-08T03:08:01;24.35;;;8.75;;
74707;SDS011;63360;50.104;8.074;2024-03-08T03:10:30;24.43;;;8.60;;
74707;SDS011;63360;50.104;8.074;2024-03-08T03:12:57;22.50;;;8.70;;
74707;SDS011;63360;50.104;8.074;2024-03-08T03:15:24;22.55;;;9.23;;
74707;SDS011;63360;50.104;8.074;2024-03-08T03:17:53;19.10;;;7.78;;
74707;SDS011;63360;50.104;8.074;2024-03-08T03:20:20;21.75;;;8.98;;
74707;SDS011;63360;50.104;8.074;2024-03-08T03:22:53;22.40;;;9.10;;
74707;SDS011;63360;50.104;8.074;2024-03-08T03:25:19;21.40;;;8.57;;
74707;SDS011;63360;50.104;8.074;2024-03-08T03:27:55;25.38;;;9.18;;
74707;SDS011;63360;50.104;8.074;2024-03-08T03:30:24;23.85;;;9.15;;
74707;SDS011;63360;50.104;8.074;2024-03-08T03:32:53;22.50;;;8.85;;
74707;SDS011;63360;50.104;8.074;2024-03-08T03:35:21;21.53;;;9.13;;
74707;SDS011;63360;50.104;8.074;2024-03-08T03:37:48;22.67;;;8.70;;
74707;SDS011;63360;50.104;8.074;2024-03-08T03:40:28;21.55;;;8.68;;
74707;SDS011;63360;50.104;8.074;2024-03-08T03:42:55;25.50;;;9.90;;
74707;SDS011;63360;50.104;8.074;2024-03-08T03:45:22;21.77;;;8.60;;
74707;SDS011;63360;50.104;8.074;2024-03-08T03:47:51;25.67;;;8.87;;
74707;SDS011;63360;50.104;8.074;2024-03-08T03:50:18;22.02;;;8.48;;
74707;SDS011;63360;50.104;8.074;2024-03-08T03:52:48;25.80;;;9.65;;
74707;SDS011;63360;50.104;8.074;2024-03-08T03:55:14;23.00;;;7.88;;
74707;SDS011;63360;50.104;8.074;2024-03-08T03:57:41;24.45;;;9.55;;
74707;SDS011;63360;50.104;8.074;2024-03-08T04:00:08;22.83;;;9.10;;
74707;SDS011;63360;50.104;8.074;2024-03-08T04:02:39;23.35;;;9.13;;
74707;SDS011;63360;50.104;8.074;2024-03-08T04:05:07;26.42;;;9.98;;
74707;SDS011;63360;50.104;8.074;2024-03-08T04:07:34;26.45;;;9.43;;
74707;SDS011;63360;50.104;8.074;2024-03-08T04:10:02;23.38;;;9.25;;
74707;SDS011;63360;50.104;8.074;2024-03-08T04:12:29;24.60;;;9.20;;
74707;SDS011;63360;50.104;8.074;2024-03-08T04:14:56;25.90;;;9.48;;
74707;SDS011;63360;50.104;8.074;2024-03-08T04:17:22;20.92;;;8.50;;
74707;SDS011;63360;50.104;8.074;2024-03-08T04:19:50;24.83;;;8.40;;
74707;SDS011;63360;50.104;8.074;2024-03-08T04:22:17;25.80;;;9.43;;
74707;SDS011;63360;50.104;8.074;2024-03-08T04:24:44;22.20;;;8.77;;
74707;SDS011;63360;50.104;8.074;2024-03-08T04:27:12;25.33;;;9.63;;
74707;SDS011;63360;50.104;8.074;2024-03-08T04:29:39;25.27;;;9.43;;
74707;SDS011;63360;50.104;8.074;2024-03-08T04:32:06;24.73;;;10.15;;
74707;SDS011;63360;50.104;8.074;2024-03-08T04:34:34;27.15;;;9.80;;
74707;SDS011;63360;50.104;8.074;2024-03-08T04:37:01;26.93;;;9.73;;
74707;SDS011;63360;50.104;8.074;2024-03-08T04:39:28;23.35;;;8.85;;
74707;SDS011;63360;50.104;8.074;2024-03-08T04:41:55;25.90;;;9.32;;
74707;SDS011;63360;50.104;8.074;2024-03-08T04:44:31;26.15;;;9.05;;
74707;SDS011;63360;50.104;8.074;2024-03-08T04:46:59;24.90;;;9.48;;
74707;SDS011;63360;50.104;8.074;2024-03-08T04:49:26;24.77;;;8.77;;
74707;SDS011;63360;50.104;8.074;2024-03-08T04:51:54;25.60;;;9.82;;
74707;SDS011;63360;50.104;8.074;2024-03-08T04:54:20;26.85;;;9.57;;
74707;SDS011;63360;50.104;8.074;2024-03-08T04:56:46;24.55;;;9.60;;
74707;SDS011;63360;50.104;8.074;2024-03-08T04:59:13;23.58;;;9.10;;
74707;SDS011;63360;50.104;8.074;2024-03-08T05:01:39;26.00;;;9.93;;
74707;SDS011;63360;50.104;8.074;2024-03-08T05:04:06;28.88;;;9.95;;
74707;SDS011;63360;50.104;8.074;2024-03-08T05:06:35;26.15;;;9.95;;
74707;SDS011;63360;50.104;8.074;2024-03-08T05:09:02;23.80;;;8.73;;
74707;SDS011;63360;50.104;8.074;2024-03-08T05:11:45;25.40;;;9.55;;
74707;SDS011;63360;50.104;8.074;2024-03-08T05:14:13;29.77;;;10.23;;
74707;SDS011;63360;50.104;8.074;2024-03-08T05:16:43;26.73;;;9.77;;
74707;SDS011;63360;50.104;8.074;2024-03-08T05:19:15;26.83;;;9.77;;
74707;SDS011;63360;50.104;8.074;2024-03-08T05:21:49;26.45;;;10.07;;
74707;SDS011;63360;50.104;8.074;2024-03-08T05:24:16;26.77;;;9.77;;
74707;SDS011;63360;50.104;8.074;2024-03-08T05:26:44;24.33;;;9.73;;
74707;SDS011;63360;50.104;8.074;2024-03-08T05:29:12;28.00;;;9.85;;
74707;SDS011;63360;50.104;8.074;2024-03-08T05:31:46;27.30;;;9.38;;
74707;SDS011;63360;50.104;8.074;2024-03-08T05:34:13;24.52;;;9.50;;
74707;SDS011;63360;50.104;8.074;2024-03-08T05:36:40;26.70;;;9.20;;
74707;SDS011;63360;50.104;8.074;2024-03-08T05:39:10;28.17;;;10.30;;
74707;SDS011;63360;50.104;8.074;2024-03-08T05:41:38;25.83;;;9.38;;
74707;SDS011;63360;50.104;8.074;2024-03-08T05:44:05;31.23;;;10.00;;
74707;SDS011;63360;50.104;8.074;2024-03-08T05:46:32;26.17;;;9.90;;
74707;SDS011;63360;50.104;8.074;2024-03-08T05:48:58;23.52;;;8.55;;
74707;SDS011;63360;50.104;8.074;2024-03-08T05:51:25;25.37;;;9.40;;
74707;SDS011;63360;50.104;8.074;2024-03-08T05:53:54;25.58;;;9.98;;
74707;SDS011;63360;50.104;8.074;2024-03-08T05:56:22;26.23;;;10.43;;
74707;SDS011;63360;50.104;8.074;2024-03-08T05:58:49;26.42;;;10.32;;
74707;SDS011;63360;50.104;8.074;2024-03-08T06:01:16;24.88;;;10.35;;
74707;SDS011;63360;50.104;8.074;2024-03-08T06:03:43;27.33;;;9.17;;
74707;SDS011;63360;50.104;8.074;2024-03-08T06:06:12;29.17;;;10.23;;
74707;SDS011;63360;50.104;8.074;2024-03-08T06:08:39;27.38;;;9.93;;
74707;SDS011;63360;50.104;8.074;2024-03-08T06:11:05;27.92;;;10.38;;
74707;SDS011;63360;50.104;8.074;2024-03-08T06:13:32;24.17;;;9.02;;
74707;SDS011;63360;50.104;8.074;2024-03-08T06:16:00;27.87;;;10.27;;
74707;SDS011;63360;50.104;8.074;2024-03-08T06:18:30;23.80;;;9.35;;
74707;SDS011;63360;50.104;8.074;2024-03-08T06:20:57;26.65;;;10.07;;
74707;SDS011;63360;50.104;8.074;2024-03-08T06:23:23;27.40;;;9.73;;
74707;SDS011;63360;50.104;8.074;2024-03-08T06:25:50;28.55;;;10.15;;
74707;SDS011;63360;50.104;8.074;2024-03-08T06:28:16;26.37;;;9.97;;
74707;SDS011;63360;50.104;8.074;2024-03-08T06:30:43;29.30;;;9.85;;
74707;SDS011;63360;50.104;8.074;2024-03-08T06:33:09;27.60;;;10.30;;
74707;SDS011;63360;50.104;8.074;2024-03-08T06:35:36;27.98;;;11.02;;
74707;SDS011;63360;50.104;8.074;2024-03-08T06:38:04;25.48;;;10.70;;
74707;SDS011;63360;50.104;8.074;2024-03-08T06:40:30;27.40;;;10.50;;
74707;SDS011;63360;50.104;8.074;2024-03-08T06:42:57;27.17;;;9.88;;
74707;SDS011;63360;50.104;8.074;2024-03-08T06:45:23;27.15;;;9.60;;
74707;SDS011;63360;50.104;8.074;2024-03-08T06:47:50;26.05;;;10.15;;
74707;SDS011;63360;50.104;8.074;2024-03-08T06:50:16;24.95;;;9.07;;
74707;SDS011;63360;50.104;8.074;2024-03-08T06:52:43;25.47;;;9.57;;
74707;SDS011;63360;50.104;8.074;2024-03-08T06:55:12;26.10;;;10.32;;
74707;SDS011;63360;50.104;8.074;2024-03-08T06:57:39;22.90;;;9.40;;
74707;SDS011;63360;50.104;8.074;2024-03-08T07:00:07;27.70;;;10.15;;
74707;SDS011;63360;50.104;8.074;2024-03-08T07:02:36;26.58;;;9.88;;
74707;SDS011;63360;50.104;8.074;2024-03-08T07:05:02;23.60;;;9.20;;
74707;SDS011;63360;50.104;8.074;2024-03-08T07:07:30;25.15;;;9.80;;
74707;SDS011;63360;50.104;8.074;2024-03-08T07:09:57;23.90;;;9.13;;
74707;SDS011;63360;50.104;8.074;2024-03-08T07:12:24;24.70;;;9.43;;
74707;SDS011;63360;50.104;8.074;2024-03-08T07:14:50;27.50;;;9.95;;
74707;SDS011;63360;50.104;8.074;2024-03-08T07:17:17;26.27;;;10.27;;
74707;SDS011;63360;50.104;8.074;2024-03-08T07:19:43;25.25;;;9.98;;
74707;SDS011;63360;50.104;8.074;2024-03-08T07:22:10;24.85;;;9.38;;
74707;SDS011;63360;50.104;8.074;2024-03-08T07:24:37;23.83;;;9.80;;
74707;SDS011;63360;50.104;8.074;2024-03-08T07:27:24;24.85;;;9.60;;
74707;SDS011;63360;50.104;8.074;2024-03-08T07:29:51;23.20;;;9.43;;
74707;SDS011;63360;50.104;8.074;2024-03-08T07:32:32;25.38;;;10.25;;
74707;SDS011;63360;50.104;8.074;2024-03-08T07:35:00;29.10;;;9.90;;
74707;SDS011;63360;50.104;8.074;2024-03-08T07:37:28;25.13;;;9.77;;
74707;SDS011;63360;50.104;8.074;2024-03-08T07:39:54;24.42;;;9.43;;
74707;SDS011;63360;50.104;8.074;2024-03-08T07:42:21;24.40;;;9.70;;
74707;SDS011;63360;50.104;8.074;2024-03-08T07:44:48;22.38;;;9.98;;
74707;SDS011;63360;50.104;8.074;2024-03-08T07:47:16;23.98;;;9.50;;
74707;SDS011;63360;50.104;8.074;2024-03-08T07:49:47;25.27;;;10.82;;
74707;SDS011;63360;50.104;8.074;2024-03-08T07:52:13;26.85;;;10.73;;
74707;SDS011;63360;50.104;8.074;2024-03-08T07:54:41;26.20;;;9.70;;
74707;SDS011;63360;50.104;8.074;2024-03-08T07:57:08;22.67;;;9.45;;
74707;SDS011;63360;50.104;8.074;2024-03-08T07:59:34;21.95;;;9.15;;
74707;SDS011;63360;50.104;8.074;2024-03-08T08:02:01;24.73;;;9.52;;
74707;SDS011;63360;50.104;8.074;2024-03-08T08:04:27;21.38;;;9.13;;
74707;SDS011;63360;50.104;8.074;2024-03-08T08:06:54;23.57;;;10.50;;
74707;SDS011;63360;50.104;8.074;2024-03-08T08:09:21;21.77;;;9.30;;
74707;SDS011;63360;50.104;8.074;2024-03-08T08:12:00;22.95;;;9.20;;
74707;SDS011;63360;50.104;8.074;2024-03-08T08:14:29;24.88;;;10.00;;
74707;SDS011;63360;50.104;8.074;2024-03-08T08:16:56;21.60;;;9.75;;
74707;SDS011;63360;50.104;8.074;2024-03-08T08:19:24;23.20;;;8.87;;
74707;SDS011;63360;50.104;8.074;2024-03-08T08:21:52;22.83;;;10.27;;
74707;SDS011;63360;50.104;8.074;2024-03-08T08:24:19;22.02;;;9.77;;
74707;SDS011;63360;50.104;8.074;2024-03-08T08:26:47;21.38;;;9.30;;
74707;SDS011;63360;50.104;8.074;2024-03-08T08:29:14;23.65;;;8.80;;
74707;SDS011;63360;50.104;8.074;2024-03-08T08:31:40;22.03;;;9.80;;
74707;SDS011;63360;50.104;8.074;2024-03-08T08:34:08;21.75;;;9.10;;
74707;SDS011;63360;50.104;8.074;2024-03-08T08:36:35;20.95;;;8.77;;
74707;SDS011;63360;50.104;8.074;2024-03-08T08:39:03;22.63;;;9.18;;
74707;SDS011;63360;50.104;8.074;2024-03-08T08:41:29;19.75;;;9.32;;
74707;SDS011;63360;50.104;8.074;2024-03-08T08:43:56;21.47;;;9.73;;
74707;SDS011;63360;50.104;8.074;2024-03-08T08:46:39;21.25;;;9.07;;
74707;SDS011;63360;50.104;8.074;2024-03-08T08:49:07;19.98;;;9.07;;
74707;SDS011;63360;50.104;8.074;2024-03-08T08:51:36;23.38;;;9.38;;
74707;SDS011;63360;50.104;8.074;2024-03-08T08:54:03;19.05;;;8.32;;
74707;SDS011;63360;50.104;8.074;2024-03-08T08:56:29;21.80;;;9.93;;
74707;SDS011;63360;50.104;8.074;2024-03-08T08:58:56;18.85;;;9.00;;
74707;SDS011;63360;50.104;8.074;2024-03-08T09:01:23;20.60;;;9.40;;
74707;SDS011;63360;50.104;8.074;2024-03-08T09:03:49;19.95;;;9.63;;
74707;SDS011;63360;50.104;8.074;2024-03-08T09:06:16;20.55;;;9.05;;
74707;SDS011;63360;50.104;8.074;2024-03-08T09:08:43;22.10;;;9.57;;
74707;SDS011;63360;50.104;8.074;2024-03-08T09:11:12;22.35;;;9.32;;
74707;SDS011;63360;50.104;8.074;2024-03-08T09:13:38;23.55;;;9.95;;
74707;SDS011;63360;50.104;8.074;2024-03-08T09:16:05;20.48;;;9.55;;
74707;SDS011;63360;50.104;8.074;2024-03-08T09:18:32;23.35;;;10.02;;
74707;SDS011;63360;50.104;8.074;2024-03-08T09:20:59;22.20;;;9.63;;
74707;SDS011;63360;50.104;8.074;2024-03-08T09:23:25;27.00;;;9.70;;
74707;SDS011;63360;50.104;8.074;2024-03-08T09:25:56;25.83;;;9.07;;
74707;SDS011;63360;50.104;8.074;2024-03-08T09:28:26;19.65;;;8.70;;
74707;SDS011;63360;50.104;8.074;2024-03-08T09:30:53;20.30;;;8.45;;
74707;SDS011;63360;50.104;8.074;2024-03-08T09:33:25;21.07;;;8.83;;
74707;SDS011;63360;50.104;8.074;2024-03-08T09:35:53;20.40;;;9.40;;
74707;SDS011;63360;50.104;8.074;2024-03-08T09:38:19;20.75;;;9.27;;
74707;SDS011;63360;50.104;8.074;2024-03-08T09:40:46;21.13;;;8.95;;
74707;SDS011;63360;50.104;8.074;2024-03-08T09:43:14;21.33;;;9.50;;
74707;SDS011;63360;50.104;8.074;2024-03-08T09:45:40;21.00;;;8.87;;
74707;SDS011;63360;50.104;8.074;2024-03-08T09:48:11;20.40;;;9.30;;
74707;SDS011;63360;50.104;8.074;2024-03-08T09:50:39;22.98;;;8.70;;
74707;SDS011;63360;50.104;8.074;2024-03-08T09:53:08;20.98;;;9.10;;
74707;SDS011;63360;50.104;8.074;2024-03-08T09:55:38;22.35;;;8.68;;
74707;SDS011;63360;50.104;8.074;2024-03-08T09:58:09;22.63;;;9.30;;
74707;SDS011;63360;50.104;8.074;2024-03-08T10:01:08;20.83;;;9.25;;
74707;SDS011;63360;50.104;8.074;2024-03-08T10:03:35;23.00;;;8.85;;
74707;SDS011;63360;50.104;8.074;2024-03-08T10:06:01;18.95;;;8.70;;
74707;SDS011;63360;50.104;8.074;2024-03-08T10:08:28;20.38;;;8.52;;
74707;SDS011;63360;50.104;8.074;2024-03-08T10:10:57;19.50;;;8.97;;
74707;SDS011;63360;50.104;8.074;2024-03-08T10:13:27;19.83;;;8.38;;
74707;SDS011;63360;50.104;8.074;2024-03-08T10:15:55;20.88;;;8.70;;
74707;SDS011;63360;50.104;8.074;2024-03-08T10:18:21;22.52;;;9.13;;
74707;SDS011;63360;50.104;8.074;2024-03-08T10:23:36;20.60;;;8.60;;
74707;SDS011;63360;50.104;8.074;2024-03-08T10:26:09;17.75;;;8.38;;
74707;SDS011;63360;50.104;8.074;2024-03-08T10:28:44;21.00;;;9.68;;
74707;SDS011;63360;50.104;8.074;2024-03-08T10:31:11;19.58;;;8.32;;
74707;SDS011;63360;50.104;8.074;2024-03-08T10:33:39;22.88;;;8.77;;
74707;SDS011;63360;50.104;8.074;2024-03-08T10:36:06;21.80;;;9.27;;
74707;SDS011;63360;50.104;8.074;2024-03-08T10:38:37;20.42;;;8.18;;
74707;SDS011;63360;50.104;8.074;2024-03-08T10:41:08;18.77;;;7.85;;
74707;SDS011;63360;50.104;8.074;2024-03-08T10:43:46;21.77;;;9.07;;
74707;SDS011;63360;50.104;8.074;2024-03-08T10:49:01;18.37;;;8.10;;
74707;SDS011;63360;50.104;8.074;2024-03-08T10:51:33;19.88;;;8.45;;
74707;SDS011;63360;50.104;8.074;2024-03-08T10:54:00;16.75;;;8.10;;
74707;SDS011;63360;50.104;8.074;2024-03-08T10:56:29;20.13;;;8.10;;
74707;SDS011;63360;50.104;8.074;2024-03-08T10:58:55;17.25;;;7.38;;
74707;SDS011;63360;50.104;8.074;2024-03-08T11:01:22;17.57;;;8.17;;
74707;SDS011;63360;50.104;8.074;2024-03-08T11:03:52;17.75;;;7.57;;
74707;SDS011;63360;50.104;8.074;2024-03-08T11:06:44;16.48;;;7.93;;
74707;SDS011;63360;50.104;8.074;2024-03-08T11:09:27;17.13;;;7.50;;
74707;SDS011;63360;50.104;8.074;2024-03-08T11:12:17;18.85;;;8.15;;
74707;SDS011;63360;50.104;8.074;2024-03-08T11:14:52;18.33;;;8.20;;
74707;SDS011;63360;50.104;8.074;2024-03-08T11:17:26;17.58;;;7.43;;
74707;SDS011;63360;50.104;8.074;2024-03-08T11:20:13;16.60;;;7.53;;
74707;SDS011;63360;50.104;8.074;2024-03-08T11:22:48;18.02;;;7.72;;
74707;SDS011;63360;50.104;8.074;2024-03-08T11:28:13;14.77;;;6.90;;
74707;SDS011;63360;50.104;8.074;2024-03-08T11:30:47;15.43;;;7.20;;
74707;SDS011;63360;50.104;8.074;2024-03-08T11:33:36;19.33;;;8.30;;
74707;SDS011;63360;50.104;8.074;2024-03-08T11:36:10;16.42;;;8.05;;
74707;SDS011;63360;50.104;8.074;2024-03-08T11:38:43;16.17;;;7.40;;
74707;SDS011;63360;50.104;8.074;2024-03-08T11:41:10;16.07;;;7.87;;
74707;SDS011;63360;50.104;8.074;2024-03-08T11:43:44;18.60;;;7.95;;
74707;SDS011;63360;50.104;8.074;2024-03-08T11:46:11;18.58;;;7.15;;
74707;SDS011;63360;50.104;8.074;2024-03-08T11:48:41;16.77;;;7.80;;
74707;SDS011;63360;50.104;8.074;2024-03-08T11:51:13;16.88;;;7.43;;
74707;SDS011;63360;50.104;8.074;2024-03-08T11:53:41;16.80;;;7.37;;
74707;SDS011;63360;50.104;8.074;2024-03-08T11:56:13;16.38;;;7.38;;
74707;SDS011;63360;50.104;8.074;2024-03-08T11:58:41;16.02;;;7.20;;
74707;SDS011;63360;50.104;8.074;2024-03-08T12:01:09;17.05;;;8.02;;
74707;SDS011;63360;50.104;8.074;2024-03-08T12:03:39;15.20;;;7.00;;
74707;SDS011;63360;50.104;8.074;2024-03-08T12:06:09;15.17;;;7.30;;
74707;SDS011;63360;50.104;8.074;2024-03-08T12:08:41;18.15;;;8.38;;
74707;SDS011;63360;50.104;8.074;2024-03-08T12:11:07;17.88;;;8.18;;
74707;SDS011;63360;50.104;8.074;2024-03-08T12:13:36;16.75;;;7.72;;
74707;SDS011;63360;50.104;8.074;2024-03-08T12:16:03;17.42;;;8.00;;
74707;SDS011;63360;50.104;8.074;2024-03-08T12:18:35;16.07;;;7.90;;
74707;SDS011;63360;50.104;8.074;2024-03-08T12:21:07;15.70;;;7.47;;
74707;SDS011;63360;50.104;8.074;2024-03-08T12:23:36;19.30;;;8.10;;
74707;SDS011;63360;50.104;8.074;2024-03-08T12:26:18;17.58;;;7.68;;
74707;SDS011;63360;50.104;8.074;2024-03-08T12:28:50;16.90;;;7.60;;
74707;SDS011;63360;50.104;8.074;2024-03-08T12:31:16;16.20;;;7.90;;
74707;SDS011;63360;50.104;8.074;2024-03-08T12:33:51;16.48;;;7.50;;
74707;SDS011;63360;50.104;8.074;2024-03-08T12:36:22;17.55;;;7.90;;
74707;SDS011;63360;50.104;8.074;2024-03-08T12:38:49;17.50;;;8.00;;
74707;SDS011;63360;50.104;8.074;2024-03-08T12:41:16;16.23;;;8.07;;
74707;SDS011;63360;50.104;8.074;2024-03-08T12:43:44;14.60;;;6.70;;
74707;SDS011;63360;50.104;8.074;2024-03-08T12:46:18;18.38;;;7.80;;
74707;SDS011;63360;50.104;8.074;2024-03-08T12:48:52;14.50;;;7.00;;
74707;SDS011;63360;50.104;8.074;2024-03-08T12:51:20;15.80;;;7.45;;
74707;SDS011;63360;50.104;8.074;2024-03-08T12:53:47;15.65;;;7.20;;
74707;SDS011;63360;50.104;8.074;2024-03-08T12:56:16;16.60;;;7.80;;
74707;SDS011;63360;50.104;8.074;2024-03-08T12:58:54;17.63;;;7.43;;
74707;SDS011;63360;50.104;8.074;2024-03-08T13:01:21;15.13;;;6.95;;
74707;SDS011;63360;50.104;8.074;2024-03-08T13:03:48;18.13;;;7.90;;
74707;SDS011;63360;50.104;8.074;2024-03-08T13:06:18;16.55;;;7.43;;
74707;SDS011;63360;50.104;8.074;2024-03-08T13:08:47;16.70;;;7.87;;
74707;SDS011;63360;50.104;8.074;2024-03-08T13:11:14;20.70;;;9.40;;
74707;SDS011;63360;50.104;8.074;2024-03-08T13:13:41;18.75;;;7.53;;
74707;SDS011;63360;50.104;8.074;2024-03-08T13:16:08;16.95;;;7.80;;
74707;SDS011;63360;50.104;8.074;2024-03-08T13:18:38;15.70;;;7.90;;
74707;SDS011;63360;50.104;8.074;2024-03-08T13:21:04;17.23;;;7.97;;
74707;SDS011;63360;50.104;8.074;2024-03-08T13:23:34;17.83;;;8.07;;
74707;SDS011;63360;50.104;8.074;2024-03-08T13:26:09;17.77;;;8.43;;
74707;SDS011;63360;50.104;8.074;2024-03-08T13:28:43;17.42;;;7.70;;
74707;SDS011;63360;50.104;8.074;2024-03-08T13:31:11;18.50;;;8.13;;
74707;SDS011;63360;50.104;8.074;2024-03-08T13:33:37;16.77;;;8.47;;
74707;SDS011;63360;50.104;8.074;2024-03-08T13:36:08;18.48;;;7.95;;
74707;SDS011;63360;50.104;8.074;2024-03-08T13:38:44;16.73;;;8.00;;
74707;SDS011;63360;50.104;8.074;2024-03-08T13:41:12;17.45;;;8.35;;
74707;SDS011;63360;50.104;8.074;2024-03-08T13:43:41;19.35;;;8.80;;
74707;SDS011;63360;50.104;8.074;2024-03-08T13:46:07;16.53;;;7.97;;
74707;SDS011;63360;50.104;8.074;2024-03-08T13:48:36;18.20;;;8.52;;
74707;SDS011;63360;50.104;8.074;2024-03-08T13:51:07;18.65;;;8.95;;
74707;SDS011;63360;50.104;8.074;2024-03-08T13:53:36;18.40;;;7.90;;
74707;SDS011;63360;50.104;8.074;2024-03-08T13:56:02;16.40;;;7.55;;
74707;SDS011;63360;50.104;8.074;2024-03-08T13:58:29;17.67;;;7.67;;
74707;SDS011;63360;50.104;8.074;2024-03-08T14:00:56;20.15;;;7.43;;
74707;SDS011;63360;50.104;8.074;2024-03-08T14:03:22;18.73;;;9.07;;
74707;SDS011;63360;50.104;8.074;2024-03-08T14:05:50;17.30;;;8.13;;
74707;SDS011;63360;50.104;8.074;2024-03-08T14:08:17;18.15;;;7.80;;
74707;SDS011;63360;50.104;8.074;2024-03-08T14:10:43;18.57;;;8.57;;
74707;SDS011;63360;50.104;8.074;2024-03-08T14:13:13;19.83;;;8.63;;
74707;SDS011;63360;50.104;8.074;2024-03-08T14:15:42;20.33;;;7.97;;
74707;SDS011;63360;50.104;8.074;2024-03-08T14:18:08;19.27;;;8.45;;
74707;SDS011;63360;50.104;8.074;2024-03-08T14:20:35;17.60;;;7.53;;
74707;SDS011;63360;50.104;8.074;2024-03-08T14:23:01;18.27;;;7.97;;
74707;SDS011;63360;50.104;8.074;2024-03-08T14:25:28;17.98;;;8.40;;
74707;SDS011;63360;50.104;8.074;2024-03-08T14:27:56;16.52;;;7.22;;
74707;SDS011;63360;50.104;8.074;2024-03-08T14:30:29;18.63;;;8.10;;
74707;SDS011;63360;50.104;8.074;2024-03-08T14:33:09;16.92;;;7.80;;
74707;SDS011;63360;50.104;8.074;2024-03-08T14:35:36;17.00;;;7.93;;
74707;SDS011;63360;50.104;8.074;2024-03-08T14:38:04;16.48;;;7.50;;
74707;SDS011;63360;50.104;8.074;2024-03-08T14:40:34;18.75;;;8.23;;
74707;SDS011;63360;50.104;8.074;2024-03-08T14:43:02;17.75;;;8.25;;
74707;SDS011;63360;50.104;8.074;2024-03-08T14:45:32;16.90;;;8.23;;
74707;SDS011;63360;50.104;8.074;2024-03-08T14:47:58;17.37;;;8.57;;
74707;SDS011;63360;50.104;8.074;2024-03-08T14:50:25;19.60;;;7.95;;